sensor_id;sensor_type;location;lat;lon;timestamp;P1;durP1;ratioP1;P2;durP2;ratioP2
58661;SDS011;44432;49.786;22.760;2023-04-16T00:00:35;81.20;;;46.90;;
58661;SDS011;44432;49.786;22.760;2023-04-16T00:03:26;27.90;;;18.80;;
58661;SDS011;44432;49.786;22.760;2023-04-16T00:05:57;25.70;;;16.40;;
58661;SDS011;44432;49.786;22.760;2023-04-16T00:08:27;28.40;;;18.70;;
58661;SDS011;44432;49.786;22.760;2023-04-16T00:10:58;25.20;;;15.90;;
58661;SDS011;44432;49.786;22.760;2023-04-16T00:13:29;21.20;;;12.90;;
58661;SDS011;44432;49.786;22.760;2023-04-16T00:15:59;14.90;;;10.10;;
58661;SDS011;44432;49.786;22.760;2023-04-16T00:18:30;12.20;;;10.00;;
58661;SDS011;44432;49.786;22.760;2023-04-16T00:21:01;13.70;;;9.90;;
58661;SDS011;44432;49.786;22.760;2023-04-16T00:23:32;14.20;;;9.70;;
58661;SDS011;44432;49.786;22.760;2023-04-16T00:26:02;15.30;;;9.60;;
58661;SDS011;44432;49.786;22.760;2023-04-16T00:28:33;12.60;;;8.80;;
58661;SDS011;44432;49.786;22.760;2023-04-16T00:31:04;15.30;;;10.90;;
58661;SDS011;44432;49.786;22.760;2023-04-16T00:33:34;17.80;;;12.50;;
58661;SDS011;44432;49.786;22.760;2023-04-16T00:36:05;16.60;;;11.80;;
58661;SDS011;44432;49.786;22.760;2023-04-16T00:38:37;15.30;;;11.30;;
58661;SDS011;44432;49.786;22.760;2023-04-16T00:41:07;15.40;;;10.70;;
58661;SDS011;44432;49.786;22.760;2023-04-16T00:43:38;17.10;;;11.60;;
58661;SDS011;44432;49.786;22.760;2023-04-16T00:46:09;20.40;;;12.80;;
58661;SDS011;44432;49.786;22.760;2023-04-16T00:48:40;15.70;;;10.90;;
58661;SDS011;44432;49.786;22.760;2023-04-16T00:51:13;14.90;;;10.60;;
58661;SDS011;44432;49.786;22.760;2023-04-16T00:53:44;15.30;;;10.90;;
58661;SDS011;44432;49.786;22.760;2023-04-16T00:56:16;18.40;;;11.40;;
58661;SDS011;44432;49.786;22.760;2023-04-16T00:58:49;17.50;;;10.10;;
58661;SDS011;44432;49.786;22.760;2023-04-16T01:01:19;14.40;;;9.80;;
58661;SDS011;44432;49.786;22.760;2023-04-16T01:03:50;14.60;;;9.80;;
58661;SDS011;44432;49.786;22.760;2023-04-16T01:06:22;14.40;;;9.30;;
58661;SDS011;44432;49.786;22.760;2023-04-16T01:08:53;13.60;;;9.90;;
58661;SDS011;44432;49.786;22.760;2023-04-16T01:11:24;14.50;;;10.00;;
58661;SDS011;44432;49.786;22.760;2023-04-16T01:13:54;16.60;;;9.80;;
58661;SDS011;44432;49.786;22.760;2023-04-16T01:16:25;16.90;;;11.00;;
58661;SDS011;44432;49.786;22.760;2023-04-16T01:18:56;20.20;;;11.20;;
58661;SDS011;44432;49.786;22.760;2023-04-16T01:21:27;16.30;;;10.00;;
58661;SDS011;44432;49.786;22.760;2023-04-16T01:23:58;16.90;;;9.60;;
58661;SDS011;44432;49.786;22.760;2023-04-16T01:26:32;14.00;;;9.70;;
58661;SDS011;44432;49.786;22.760;2023-04-16T01:29:02;13.30;;;9.10;;
58661;SDS011;44432;49.786;22.760;2023-04-16T01:31:33;13.60;;;8.90;;
58661;SDS011;44432;49.786;22.760;2023-04-16T01:34:04;12.30;;;8.30;;
58661;SDS011;44432;49.786;22.760;2023-04-16T01:36:34;13.60;;;8.40;;
58661;SDS011;44432;49.786;22.760;2023-04-16T01:39:05;11.80;;;7.90;;
58661;SDS011;44432;49.786;22.760;2023-04-16T01:41:38;16.50;;;9.00;;
58661;SDS011;44432;49.786;22.760;2023-04-16T01:44:09;17.60;;;7.70;;
58661;SDS011;44432;49.786;22.760;2023-04-16T01:46:39;17.50;;;8.50;;
58661;SDS011;44432;49.786;22.760;2023-04-16T01:49:10;27.50;;;8.40;;
58661;SDS011;44432;49.786;22.760;2023-04-16T01:51:41;14.00;;;7.50;;
58661;SDS011;44432;49.786;22.760;2023-04-16T01:54:12;13.90;;;7.50;;
58661;SDS011;44432;49.786;22.760;2023-04-16T01:56:42;24.50;;;8.00;;
58661;SDS011;44432;49.786;22.760;2023-04-16T01:59:13;12.00;;;8.10;;
58661;SDS011;44432;49.786;22.760;2023-04-16T02:01:43;11.40;;;7.50;;
58661;SDS011;44432;49.786;22.760;2023-04-16T02:04:14;10.80;;;7.30;;
58661;SDS011;44432;49.786;22.760;2023-04-16T02:06:45;17.20;;;7.70;;
58661;SDS011;44432;49.786;22.760;2023-04-16T02:09:16;12.00;;;7.90;;
58661;SDS011;44432;49.786;22.760;2023-04-16T02:11:46;9.80;;;7.10;;
58661;SDS011;44432;49.786;22.760;2023-04-16T02:14:17;13.90;;;7.00;;
58661;SDS011;44432;49.786;22.760;2023-04-16T02:16:48;8.90;;;6.60;;
58661;SDS011;44432;49.786;22.760;2023-04-16T02:19:19;12.80;;;7.40;;
58661;SDS011;44432;49.786;22.760;2023-04-16T02:21:51;9.10;;;6.60;;
58661;SDS011;44432;49.786;22.760;2023-04-16T02:24:22;11.40;;;6.90;;
58661;SDS011;44432;49.786;22.760;2023-04-16T02:26:53;9.30;;;6.90;;
58661;SDS011;44432;49.786;22.760;2023-04-16T02:29:23;10.90;;;7.20;;
58661;SDS011;44432;49.786;22.760;2023-04-16T02:31:55;10.00;;;6.40;;
58661;SDS011;44432;49.786;22.760;2023-04-16T02:34:26;10.50;;;7.20;;
58661;SDS011;44432;49.786;22.760;2023-04-16T02:36:57;9.60;;;6.60;;
58661;SDS011;44432;49.786;22.760;2023-04-16T02:39:28;10.70;;;7.20;;
58661;SDS011;44432;49.786;22.760;2023-04-16T02:41:59;9.40;;;7.20;;
58661;SDS011;44432;49.786;22.760;2023-04-16T02:44:30;10.70;;;7.40;;
58661;SDS011;44432;49.786;22.760;2023-04-16T02:47:00;9.30;;;6.90;;
58661;SDS011;44432;49.786;22.760;2023-04-16T02:49:31;10.30;;;6.60;;
58661;SDS011;44432;49.786;22.760;2023-04-16T02:52:02;10.70;;;7.00;;
58661;SDS011;44432;49.786;22.760;2023-04-16T02:54:33;11.10;;;7.20;;
58661;SDS011;44432;49.786;22.760;2023-04-16T02:57:03;10.40;;;7.40;;
58661;SDS011;44432;49.786;22.760;2023-04-16T02:59:34;10.50;;;7.50;;
58661;SDS011;44432;49.786;22.760;2023-04-16T03:02:04;11.20;;;6.90;;
58661;SDS011;44432;49.786;22.760;2023-04-16T03:04:35;10.30;;;6.70;;
58661;SDS011;44432;49.786;22.760;2023-04-16T03:07:06;10.10;;;8.00;;
58661;SDS011;44432;49.786;22.760;2023-04-16T03:09:37;9.70;;;6.90;;
58661;SDS011;44432;49.786;22.760;2023-04-16T03:12:08;9.40;;;6.50;;
58661;SDS011;44432;49.786;22.760;2023-04-16T03:14:39;10.10;;;6.00;;
58661;SDS011;44432;49.786;22.760;2023-04-16T03:17:09;11.40;;;6.80;;
58661;SDS011;44432;49.786;22.760;2023-04-16T03:19:40;11.90;;;6.50;;
58661;SDS011;44432;49.786;22.760;2023-04-16T03:22:10;10.20;;;6.50;;
58661;SDS011;44432;49.786;22.760;2023-04-16T03:24:41;10.10;;;6.70;;
58661;SDS011;44432;49.786;22.760;2023-04-16T03:27:12;10.20;;;6.70;;
58661;SDS011;44432;49.786;22.760;2023-04-16T03:29:42;8.70;;;6.20;;
58661;SDS011;44432;49.786;22.760;2023-04-16T03:32:13;14.60;;;6.60;;
58661;SDS011;44432;49.786;22.760;2023-04-16T03:34:44;8.30;;;5.80;;
58661;SDS011;44432;49.786;22.760;2023-04-16T03:37:14;10.10;;;6.40;;
58661;SDS011;44432;49.786;22.760;2023-04-16T03:39:45;10.20;;;5.90;;
58661;SDS011;44432;49.786;22.760;2023-04-16T03:42:16;10.30;;;5.80;;
58661;SDS011;44432;49.786;22.760;2023-04-16T03:44:47;14.60;;;6.50;;
58661;SDS011;44432;49.786;22.760;2023-04-16T03:47:17;10.50;;;6.50;;
58661;SDS011;44432;49.786;22.760;2023-04-16T03:49:48;12.30;;;6.80;;
58661;SDS011;44432;49.786;22.760;2023-04-16T03:52:19;11.20;;;7.20;;
58661;SDS011;44432;49.786;22.760;2023-04-16T03:54:50;13.70;;;7.70;;
58661;SDS011;44432;49.786;22.760;2023-04-16T03:57:20;14.50;;;7.30;;
58661;SDS011;44432;49.786;22.760;2023-04-16T03:59:51;14.80;;;8.40;;
58661;SDS011;44432;49.786;22.760;2023-04-16T04:02:22;14.10;;;9.10;;
58661;SDS011;44432;49.786;22.760;2023-04-16T04:04:53;12.60;;;7.50;;
58661;SDS011;44432;49.786;22.760;2023-04-16T04:07:23;20.10;;;7.30;;
58661;SDS011;44432;49.786;22.760;2023-04-16T04:09:54;25.70;;;7.50;;
58661;SDS011;44432;49.786;22.760;2023-04-16T04:12:24;38.70;;;7.60;;
58661;SDS011;44432;49.786;22.760;2023-04-16T04:14:55;35.90;;;8.00;;
58661;SDS011;44432;49.786;22.760;2023-04-16T04:17:26;43.00;;;8.80;;
58661;SDS011;44432;49.786;22.760;2023-04-16T04:19:57;32.10;;;7.40;;
58661;SDS011;44432;49.786;22.760;2023-04-16T04:22:27;16.70;;;6.50;;
58661;SDS011;44432;49.786;22.760;2023-04-16T04:24:58;23.80;;;5.90;;
58661;SDS011;44432;49.786;22.760;2023-04-16T04:27:29;48.40;;;7.40;;
58661;SDS011;44432;49.786;22.760;2023-04-16T04:29:59;15.60;;;5.80;;
58661;SDS011;44432;49.786;22.760;2023-04-16T04:32:31;17.80;;;6.00;;
58661;SDS011;44432;49.786;22.760;2023-04-16T04:35:01;13.10;;;7.40;;
58661;SDS011;44432;49.786;22.760;2023-04-16T04:37:33;22.20;;;6.50;;
58661;SDS011;44432;49.786;22.760;2023-04-16T04:40:04;13.70;;;5.70;;
58661;SDS011;44432;49.786;22.760;2023-04-16T04:42:37;11.90;;;6.00;;
58661;SDS011;44432;49.786;22.760;2023-04-16T04:45:08;9.80;;;5.70;;
58661;SDS011;44432;49.786;22.760;2023-04-16T04:47:40;19.10;;;6.70;;
58661;SDS011;44432;49.786;22.760;2023-04-16T04:50:10;9.70;;;5.90;;
58661;SDS011;44432;49.786;22.760;2023-04-16T04:52:41;8.50;;;6.60;;
58661;SDS011;44432;49.786;22.760;2023-04-16T04:55:12;13.20;;;5.90;;
58661;SDS011;44432;49.786;22.760;2023-04-16T04:57:43;12.50;;;6.30;;
58661;SDS011;44432;49.786;22.760;2023-04-16T05:00:13;13.30;;;6.40;;
58661;SDS011;44432;49.786;22.760;2023-04-16T05:02:44;10.10;;;6.30;;
58661;SDS011;44432;49.786;22.760;2023-04-16T05:05:15;16.40;;;6.60;;
58661;SDS011;44432;49.786;22.760;2023-04-16T05:07:46;11.20;;;7.40;;
58661;SDS011;44432;49.786;22.760;2023-04-16T05:10:17;16.80;;;6.90;;
58661;SDS011;44432;49.786;22.760;2023-04-16T05:12:48;9.60;;;6.20;;
58661;SDS011;44432;49.786;22.760;2023-04-16T05:15:18;12.10;;;5.70;;
58661;SDS011;44432;49.786;22.760;2023-04-16T05:17:49;8.10;;;4.90;;
58661;SDS011;44432;49.786;22.760;2023-04-16T05:20:20;9.00;;;5.50;;
58661;SDS011;44432;49.786;22.760;2023-04-16T05:22:51;7.50;;;5.50;;
58661;SDS011;44432;49.786;22.760;2023-04-16T05:25:22;7.20;;;5.10;;
58661;SDS011;44432;49.786;22.760;2023-04-16T05:27:53;8.20;;;4.60;;
58661;SDS011;44432;49.786;22.760;2023-04-16T05:30:23;6.50;;;4.60;;
58661;SDS011;44432;49.786;22.760;2023-04-16T05:32:54;5.80;;;4.20;;
58661;SDS011;44432;49.786;22.760;2023-04-16T05:35:25;7.50;;;3.80;;
58661;SDS011;44432;49.786;22.760;2023-04-16T05:37:56;3.90;;;3.20;;
58661;SDS011;44432;49.786;22.760;2023-04-16T05:40:26;6.40;;;4.00;;
58661;SDS011;44432;49.786;22.760;2023-04-16T05:42:57;12.00;;;6.80;;
58661;SDS011;44432;49.786;22.760;2023-04-16T05:45:28;8.70;;;6.90;;
58661;SDS011;44432;49.786;22.760;2023-04-16T05:48:00;9.30;;;7.90;;
58661;SDS011;44432;49.786;22.760;2023-04-16T05:50:30;16.40;;;9.80;;
58661;SDS011;44432;49.786;22.760;2023-04-16T05:53:01;13.60;;;11.00;;
58661;SDS011;44432;49.786;22.760;2023-04-16T05:55:33;13.10;;;10.80;;
58661;SDS011;44432;49.786;22.760;2023-04-16T05:58:04;15.10;;;10.80;;
58661;SDS011;44432;49.786;22.760;2023-04-16T06:00:35;13.80;;;9.90;;
58661;SDS011;44432;49.786;22.760;2023-04-16T06:03:06;10.50;;;8.10;;
58661;SDS011;44432;49.786;22.760;2023-04-16T06:05:36;8.50;;;5.80;;
58661;SDS011;44432;49.786;22.760;2023-04-16T06:08:07;7.90;;;5.20;;
58661;SDS011;44432;49.786;22.760;2023-04-16T06:10:38;7.40;;;5.00;;
58661;SDS011;44432;49.786;22.760;2023-04-16T06:13:08;7.80;;;5.20;;
58661;SDS011;44432;49.786;22.760;2023-04-16T06:15:39;7.70;;;5.10;;
58661;SDS011;44432;49.786;22.760;2023-04-16T06:18:10;8.40;;;5.60;;
58661;SDS011;44432;49.786;22.760;2023-04-16T06:20:41;6.00;;;3.70;;
58661;SDS011;44432;49.786;22.760;2023-04-16T06:23:11;5.00;;;3.50;;
58661;SDS011;44432;49.786;22.760;2023-04-16T06:25:42;4.80;;;3.50;;
58661;SDS011;44432;49.786;22.760;2023-04-16T06:28:13;4.30;;;3.60;;
58661;SDS011;44432;49.786;22.760;2023-04-16T06:30:43;5.90;;;3.70;;
58661;SDS011;44432;49.786;22.760;2023-04-16T06:33:14;5.50;;;3.80;;
58661;SDS011;44432;49.786;22.760;2023-04-16T06:35:45;5.10;;;3.10;;
58661;SDS011;44432;49.786;22.760;2023-04-16T06:38:15;4.90;;;3.50;;
58661;SDS011;44432;49.786;22.760;2023-04-16T06:40:46;5.50;;;3.30;;
58661;SDS011;44432;49.786;22.760;2023-04-16T06:43:17;4.40;;;3.30;;
58661;SDS011;44432;49.786;22.760;2023-04-16T06:45:48;5.90;;;3.90;;
58661;SDS011;44432;49.786;22.760;2023-04-16T06:48:19;4.50;;;2.90;;
58661;SDS011;44432;49.786;22.760;2023-04-16T06:50:49;6.10;;;4.60;;
58661;SDS011;44432;49.786;22.760;2023-04-16T06:53:20;6.40;;;4.00;;
58661;SDS011;44432;49.786;22.760;2023-04-16T06:55:50;5.70;;;4.10;;
58661;SDS011;44432;49.786;22.760;2023-04-16T06:58:21;5.20;;;3.90;;
58661;SDS011;44432;49.786;22.760;2023-04-16T07:00:52;6.10;;;4.10;;
58661;SDS011;44432;49.786;22.760;2023-04-16T07:03:23;7.60;;;4.30;;
58661;SDS011;44432;49.786;22.760;2023-04-16T07:05:54;7.10;;;4.40;;
58661;SDS011;44432;49.786;22.760;2023-04-16T07:08:25;7.70;;;5.60;;
58661;SDS011;44432;49.786;22.760;2023-04-16T07:10:55;11.00;;;5.10;;
58661;SDS011;44432;49.786;22.760;2023-04-16T07:13:26;7.30;;;5.00;;
58661;SDS011;44432;49.786;22.760;2023-04-16T07:15:57;8.80;;;4.60;;
58661;SDS011;44432;49.786;22.760;2023-04-16T07:18:28;6.90;;;5.00;;
58661;SDS011;44432;49.786;22.760;2023-04-16T07:20:59;9.30;;;6.80;;
58661;SDS011;44432;49.786;22.760;2023-04-16T07:23:30;12.00;;;9.00;;
58661;SDS011;44432;49.786;22.760;2023-04-16T07:26:00;7.40;;;5.70;;
58661;SDS011;44432;49.786;22.760;2023-04-16T07:28:31;9.50;;;6.40;;
58661;SDS011;44432;49.786;22.760;2023-04-16T07:31:02;13.50;;;6.80;;
58661;SDS011;44432;49.786;22.760;2023-04-16T07:33:33;11.00;;;7.80;;
58661;SDS011;44432;49.786;22.760;2023-04-16T07:36:04;8.60;;;7.10;;
58661;SDS011;44432;49.786;22.760;2023-04-16T07:38:35;11.90;;;7.60;;
58661;SDS011;44432;49.786;22.760;2023-04-16T07:41:06;9.30;;;7.80;;
58661;SDS011;44432;49.786;22.760;2023-04-16T07:43:36;9.10;;;7.00;;
58661;SDS011;44432;49.786;22.760;2023-04-16T07:46:07;11.20;;;7.60;;
58661;SDS011;44432;49.786;22.760;2023-04-16T07:48:38;9.10;;;6.50;;
58661;SDS011;44432;49.786;22.760;2023-04-16T07:51:09;8.70;;;5.70;;
58661;SDS011;44432;49.786;22.760;2023-04-16T07:53:39;8.10;;;6.00;;
58661;SDS011;44432;49.786;22.760;2023-04-16T07:56:10;10.60;;;5.50;;
58661;SDS011;44432;49.786;22.760;2023-04-16T07:58:41;5.60;;;4.30;;
58661;SDS011;44432;49.786;22.760;2023-04-16T08:01:12;6.70;;;4.90;;
58661;SDS011;44432;49.786;22.760;2023-04-16T08:03:43;8.10;;;5.30;;
58661;SDS011;44432;49.786;22.760;2023-04-16T08:06:13;7.00;;;5.20;;
58661;SDS011;44432;49.786;22.760;2023-04-16T08:08:44;9.40;;;4.80;;
58661;SDS011;44432;49.786;22.760;2023-04-16T08:11:16;11.80;;;5.80;;
58661;SDS011;44432;49.786;22.760;2023-04-16T08:13:46;8.00;;;4.70;;
58661;SDS011;44432;49.786;22.760;2023-04-16T08:16:17;9.20;;;5.90;;
58661;SDS011;44432;49.786;22.760;2023-04-16T08:18:48;7.70;;;4.90;;
58661;SDS011;44432;49.786;22.760;2023-04-16T08:21:19;6.90;;;5.50;;
58661;SDS011;44432;49.786;22.760;2023-04-16T08:23:50;6.90;;;5.80;;
58661;SDS011;44432;49.786;22.760;2023-04-16T08:26:21;8.70;;;5.40;;
58661;SDS011;44432;49.786;22.760;2023-04-16T08:28:52;13.30;;;8.60;;
58661;SDS011;44432;49.786;22.760;2023-04-16T08:31:23;11.60;;;6.60;;
58661;SDS011;44432;49.786;22.760;2023-04-16T08:33:53;11.70;;;7.60;;
58661;SDS011;44432;49.786;22.760;2023-04-16T08:36:24;7.40;;;4.80;;
58661;SDS011;44432;49.786;22.760;2023-04-16T08:38:55;6.60;;;4.90;;
58661;SDS011;44432;49.786;22.760;2023-04-16T08:41:25;8.00;;;5.00;;
58661;SDS011;44432;49.786;22.760;2023-04-16T08:43:59;8.20;;;5.90;;
58661;SDS011;44432;49.786;22.760;2023-04-16T08:46:34;11.30;;;8.30;;
58661;SDS011;44432;49.786;22.760;2023-04-16T08:49:06;9.40;;;5.90;;
58661;SDS011;44432;49.786;22.760;2023-04-16T08:51:42;10.20;;;7.80;;
58661;SDS011;44432;49.786;22.760;2023-04-16T08:54:20;10.40;;;8.00;;
58661;SDS011;44432;49.786;22.760;2023-04-16T08:56:58;10.80;;;6.60;;
58661;SDS011;44432;49.786;22.760;2023-04-16T08:59:31;8.50;;;5.70;;
58661;SDS011;44432;49.786;22.760;2023-04-16T09:02:03;7.50;;;5.40;;
58661;SDS011;44432;49.786;22.760;2023-04-16T09:04:35;9.40;;;6.40;;
58661;SDS011;44432;49.786;22.760;2023-04-16T09:07:06;8.60;;;5.30;;
58661;SDS011;44432;49.786;22.760;2023-04-16T09:09:38;9.00;;;5.20;;
58661;SDS011;44432;49.786;22.760;2023-04-16T09:12:10;7.60;;;4.70;;
58661;SDS011;44432;49.786;22.760;2023-04-16T09:14:41;7.80;;;5.60;;
58661;SDS011;44432;49.786;22.760;2023-04-16T09:17:14;9.00;;;6.30;;
58661;SDS011;44432;49.786;22.760;2023-04-16T09:19:45;8.30;;;5.00;;
58661;SDS011;44432;49.786;22.760;2023-04-16T09:22:16;7.50;;;5.30;;
58661;SDS011;44432;49.786;22.760;2023-04-16T09:24:47;9.00;;;5.60;;
58661;SDS011;44432;49.786;22.760;2023-04-16T09:27:17;9.30;;;5.50;;
58661;SDS011;44432;49.786;22.760;2023-04-16T09:29:49;8.00;;;5.80;;
58661;SDS011;44432;49.786;22.760;2023-04-16T09:32:23;8.00;;;5.60;;
58661;SDS011;44432;49.786;22.760;2023-04-16T09:34:56;11.60;;;7.60;;
58661;SDS011;44432;49.786;22.760;2023-04-16T09:37:28;8.30;;;6.20;;
58661;SDS011;44432;49.786;22.760;2023-04-16T09:40:00;9.10;;;5.80;;
58661;SDS011;44432;49.786;22.760;2023-04-16T09:42:33;29.20;;;18.70;;
58661;SDS011;44432;49.786;22.760;2023-04-16T09:45:05;11.40;;;7.40;;
58661;SDS011;44432;49.786;22.760;2023-04-16T09:47:40;9.70;;;6.20;;
58661;SDS011;44432;49.786;22.760;2023-04-16T09:50:16;9.20;;;5.40;;
58661;SDS011;44432;49.786;22.760;2023-04-16T09:52:48;7.80;;;5.70;;
58661;SDS011;44432;49.786;22.760;2023-04-16T09:55:22;10.60;;;6.30;;
58661;SDS011;44432;49.786;22.760;2023-04-16T09:57:59;8.70;;;7.30;;
58661;SDS011;44432;49.786;22.760;2023-04-16T10:00:30;10.90;;;5.50;;
58661;SDS011;44432;49.786;22.760;2023-04-16T10:03:04;7.70;;;5.30;;
58661;SDS011;44432;49.786;22.760;2023-04-16T10:05:35;9.70;;;5.90;;
58661;SDS011;44432;49.786;22.760;2023-04-16T10:08:11;8.80;;;5.50;;
58661;SDS011;44432;49.786;22.760;2023-04-16T10:10:42;8.80;;;4.90;;
58661;SDS011;44432;49.786;22.760;2023-04-16T10:13:13;7.10;;;5.10;;
58661;SDS011;44432;49.786;22.760;2023-04-16T10:15:45;7.30;;;4.90;;
58661;SDS011;44432;49.786;22.760;2023-04-16T10:18:17;8.00;;;5.60;;
58661;SDS011;44432;49.786;22.760;2023-04-16T10:20:49;9.50;;;6.00;;
58661;SDS011;44432;49.786;22.760;2023-04-16T10:23:20;8.20;;;5.40;;
58661;SDS011;44432;49.786;22.760;2023-04-16T10:25:51;7.50;;;5.70;;
58661;SDS011;44432;49.786;22.760;2023-04-16T10:28:24;7.60;;;5.60;;
58661;SDS011;44432;49.786;22.760;2023-04-16T10:30:56;7.60;;;5.50;;
58661;SDS011;44432;49.786;22.760;2023-04-16T10:33:30;9.50;;;5.90;;
58661;SDS011;44432;49.786;22.760;2023-04-16T10:36:08;10.10;;;6.10;;
58661;SDS011;44432;49.786;22.760;2023-04-16T10:38:40;8.90;;;5.90;;
58661;SDS011;44432;49.786;22.760;2023-04-16T10:41:13;7.80;;;5.00;;
58661;SDS011;44432;49.786;22.760;2023-04-16T10:43:45;10.40;;;5.70;;
58661;SDS011;44432;49.786;22.760;2023-04-16T10:46:18;8.40;;;4.90;;
58661;SDS011;44432;49.786;22.760;2023-04-16T10:48:51;7.00;;;5.30;;
58661;SDS011;44432;49.786;22.760;2023-04-16T10:51:24;13.50;;;9.50;;
58661;SDS011;44432;49.786;22.760;2023-04-16T10:54:02;10.90;;;7.80;;
58661;SDS011;44432;49.786;22.760;2023-04-16T10:56:49;14.30;;;9.20;;
58661;SDS011;44432;49.786;22.760;2023-04-16T10:59:22;8.30;;;5.70;;
58661;SDS011;44432;49.786;22.760;2023-04-16T11:01:54;7.40;;;5.90;;
58661;SDS011;44432;49.786;22.760;2023-04-16T11:04:27;8.80;;;6.00;;
58661;SDS011;44432;49.786;22.760;2023-04-16T11:07:05;7.60;;;5.60;;
58661;SDS011;44432;49.786;22.760;2023-04-16T11:09:53;9.10;;;6.40;;
58661;SDS011;44432;49.786;22.760;2023-04-16T11:12:26;8.40;;;6.20;;
58661;SDS011;44432;49.786;22.760;2023-04-16T11:15:04;8.90;;;5.30;;
58661;SDS011;44432;49.786;22.760;2023-04-16T11:17:37;8.10;;;5.40;;
58661;SDS011;44432;49.786;22.760;2023-04-16T11:20:14;7.90;;;4.90;;
58661;SDS011;44432;49.786;22.760;2023-04-16T11:22:46;7.30;;;5.60;;
58661;SDS011;44432;49.786;22.760;2023-04-16T11:25:21;9.30;;;6.10;;
58661;SDS011;44432;49.786;22.760;2023-04-16T11:27:53;9.50;;;6.20;;
58661;SDS011;44432;49.786;22.760;2023-04-16T11:30:29;7.50;;;5.80;;
58661;SDS011;44432;49.786;22.760;2023-04-16T11:33:02;9.00;;;5.60;;
58661;SDS011;44432;49.786;22.760;2023-04-16T11:35:33;8.20;;;5.60;;
58661;SDS011;44432;49.786;22.760;2023-04-16T11:38:03;7.30;;;5.20;;
58661;SDS011;44432;49.786;22.760;2023-04-16T11:40:34;7.00;;;5.00;;
58661;SDS011;44432;49.786;22.760;2023-04-16T11:43:11;8.10;;;5.10;;
58661;SDS011;44432;49.786;22.760;2023-04-16T11:45:54;7.30;;;5.00;;
58661;SDS011;44432;49.786;22.760;2023-04-16T11:51:13;8.90;;;5.60;;
58661;SDS011;44432;49.786;22.760;2023-04-16T11:53:48;7.20;;;4.10;;
58661;SDS011;44432;49.786;22.760;2023-04-16T11:56:27;6.60;;;4.40;;
58661;SDS011;44432;49.786;22.760;2023-04-16T11:59:09;8.90;;;5.50;;
58661;SDS011;44432;49.786;22.760;2023-04-16T12:01:41;13.10;;;9.50;;
58661;SDS011;44432;49.786;22.760;2023-04-16T12:04:14;7.00;;;5.40;;
58661;SDS011;44432;49.786;22.760;2023-04-16T12:07:06;8.20;;;5.70;;
58661;SDS011;44432;49.786;22.760;2023-04-16T12:09:39;7.20;;;4.90;;
58661;SDS011;44432;49.786;22.760;2023-04-16T12:12:26;10.50;;;5.90;;
58661;SDS011;44432;49.786;22.760;2023-04-16T12:14:58;7.70;;;5.20;;
58661;SDS011;44432;49.786;22.760;2023-04-16T12:17:30;8.30;;;5.50;;
58661;SDS011;44432;49.786;22.760;2023-04-16T12:20:02;8.10;;;4.80;;
58661;SDS011;44432;49.786;22.760;2023-04-16T12:22:37;6.10;;;4.40;;
58661;SDS011;44432;49.786;22.760;2023-04-16T12:25:12;7.00;;;4.50;;
58661;SDS011;44432;49.786;22.760;2023-04-16T12:27:44;7.00;;;4.30;;
58661;SDS011;44432;49.786;22.760;2023-04-16T12:30:18;6.70;;;4.40;;
58661;SDS011;44432;49.786;22.760;2023-04-16T12:32:50;5.70;;;4.00;;
58661;SDS011;44432;49.786;22.760;2023-04-16T12:35:31;7.40;;;5.50;;
58661;SDS011;44432;49.786;22.760;2023-04-16T12:38:02;8.70;;;6.90;;
58661;SDS011;44432;49.786;22.760;2023-04-16T12:40:33;12.50;;;7.20;;
58661;SDS011;44432;49.786;22.760;2023-04-16T12:43:04;6.70;;;4.70;;
58661;SDS011;44432;49.786;22.760;2023-04-16T12:45:35;8.40;;;4.70;;
58661;SDS011;44432;49.786;22.760;2023-04-16T12:48:06;7.60;;;5.50;;
58661;SDS011;44432;49.786;22.760;2023-04-16T12:50:37;7.80;;;6.70;;
58661;SDS011;44432;49.786;22.760;2023-04-16T12:53:10;8.60;;;6.90;;
58661;SDS011;44432;49.786;22.760;2023-04-16T12:55:41;7.90;;;6.50;;
58661;SDS011;44432;49.786;22.760;2023-04-16T12:58:12;10.10;;;6.70;;
58661;SDS011;44432;49.786;22.760;2023-04-16T13:00:43;9.10;;;7.20;;
58661;SDS011;44432;49.786;22.760;2023-04-16T13:03:14;8.30;;;6.80;;
58661;SDS011;44432;49.786;22.760;2023-04-16T13:05:44;9.30;;;7.10;;
58661;SDS011;44432;49.786;22.760;2023-04-16T13:08:15;10.00;;;8.20;;
58661;SDS011;44432;49.786;22.760;2023-04-16T13:10:45;11.60;;;9.50;;
58661;SDS011;44432;49.786;22.760;2023-04-16T13:13:16;13.10;;;9.20;;
58661;SDS011;44432;49.786;22.760;2023-04-16T13:15:47;15.00;;;10.70;;
58661;SDS011;44432;49.786;22.760;2023-04-16T13:18:17;13.20;;;10.80;;
58661;SDS011;44432;49.786;22.760;2023-04-16T13:20:48;18.30;;;11.90;;
58661;SDS011;44432;49.786;22.760;2023-04-16T13:23:19;15.90;;;12.50;;
58661;SDS011;44432;49.786;22.760;2023-04-16T13:25:50;16.10;;;11.60;;
58661;SDS011;44432;49.786;22.760;2023-04-16T13:28:21;13.10;;;11.10;;
58661;SDS011;44432;49.786;22.760;2023-04-16T13:30:51;14.30;;;11.70;;
58661;SDS011;44432;49.786;22.760;2023-04-16T13:33:22;14.80;;;10.50;;
58661;SDS011;44432;49.786;22.760;2023-04-16T13:35:53;14.00;;;10.60;;
58661;SDS011;44432;49.786;22.760;2023-04-16T13:38:24;15.50;;;11.80;;
58661;SDS011;44432;49.786;22.760;2023-04-16T13:40:54;20.70;;;11.50;;
58661;SDS011;44432;49.786;22.760;2023-04-16T13:43:26;14.90;;;10.50;;
58661;SDS011;44432;49.786;22.760;2023-04-16T13:45:56;12.90;;;10.00;;
58661;SDS011;44432;49.786;22.760;2023-04-16T13:48:28;11.90;;;9.40;;
58661;SDS011;44432;49.786;22.760;2023-04-16T13:50:59;14.80;;;9.50;;
58661;SDS011;44432;49.786;22.760;2023-04-16T13:53:30;13.80;;;8.80;;
58661;SDS011;44432;49.786;22.760;2023-04-16T13:56:01;11.60;;;7.90;;
58661;SDS011;44432;49.786;22.760;2023-04-16T13:58:33;10.90;;;8.00;;
58661;SDS011;44432;49.786;22.760;2023-04-16T14:01:04;9.50;;;7.10;;
58661;SDS011;44432;49.786;22.760;2023-04-16T14:03:35;8.30;;;6.50;;
58661;SDS011;44432;49.786;22.760;2023-04-16T14:06:07;9.30;;;6.90;;
58661;SDS011;44432;49.786;22.760;2023-04-16T14:08:37;9.70;;;6.70;;
58661;SDS011;44432;49.786;22.760;2023-04-16T14:11:08;9.50;;;6.50;;
58661;SDS011;44432;49.786;22.760;2023-04-16T14:13:39;8.30;;;4.90;;
58661;SDS011;44432;49.786;22.760;2023-04-16T14:16:10;6.00;;;4.50;;
58661;SDS011;44432;49.786;22.760;2023-04-16T14:18:40;7.80;;;4.80;;
58661;SDS011;44432;49.786;22.760;2023-04-16T14:21:11;7.60;;;4.20;;
58661;SDS011;44432;49.786;22.760;2023-04-16T14:23:42;6.70;;;3.70;;
58661;SDS011;44432;49.786;22.760;2023-04-16T14:26:13;6.20;;;4.50;;
58661;SDS011;44432;49.786;22.760;2023-04-16T14:28:44;9.90;;;4.70;;
58661;SDS011;44432;49.786;22.760;2023-04-16T14:31:14;6.10;;;3.50;;
58661;SDS011;44432;49.786;22.760;2023-04-16T14:33:46;5.40;;;3.40;;
58661;SDS011;44432;49.786;22.760;2023-04-16T14:36:17;7.00;;;3.90;;
58661;SDS011;44432;49.786;22.760;2023-04-16T14:38:47;8.60;;;4.60;;
58661;SDS011;44432;49.786;22.760;2023-04-16T14:41:19;10.00;;;4.30;;
58661;SDS011;44432;49.786;22.760;2023-04-16T14:43:49;7.80;;;4.70;;
58661;SDS011;44432;49.786;22.760;2023-04-16T14:46:20;6.40;;;4.40;;
58661;SDS011;44432;49.786;22.760;2023-04-16T14:48:51;6.70;;;4.00;;
58661;SDS011;44432;49.786;22.760;2023-04-16T14:51:22;7.10;;;4.20;;
58661;SDS011;44432;49.786;22.760;2023-04-16T14:53:54;8.70;;;5.50;;